sensor_id;sensor_type;location;lat;lon;timestamp;temperature;humidity
14682;DHT22;7429;52.498;13.480;2023-05-07T00:00:37;9.10;99.90
14682;DHT22;7429;52.498;13.480;2023-05-07T00:03:41;9.10;99.90
14682;DHT22;7429;52.498;13.480;2023-05-07T00:06:45;9.10;99.90
14682;DHT22;7429;52.498;13.480;2023-05-07T00:09:48;9.10;99.90
14682;DHT22;7429;52.498;13.480;2023-05-07T00:12:51;9.10;99.90
14682;DHT22;7429;52.498;13.480;2023-05-07T00:15:56;9.10;99.90
14682;DHT22;7429;52.498;13.480;2023-05-07T00:18:59;9.10;99.90
14682;DHT22;7429;52.498;13.480;2023-05-07T00:22:02;9.00;99.90
14682;DHT22;7429;52.498;13.480;2023-05-07T00:25:05;9.00;99.90
14682;DHT22;7429;52.498;13.480;2023-05-07T00:28:09;9.00;99.90
14682;DHT22;7429;52.498;13.480;2023-05-07T00:31:13;9.00;99.90
14682;DHT22;7429;52.498;13.480;2023-05-07T00:34:17;9.00;99.90
14682;DHT22;7429;52.498;13.480;2023-05-07T00:37:20;9.00;99.90
14682;DHT22;7429;52.498;13.480;2023-05-07T00:40:23;9.00;99.90
14682;DHT22;7429;52.498;13.480;2023-05-07T00:43:26;8.90;99.90
14682;DHT22;7429;52.498;13.480;2023-05-07T00:46:33;8.80;99.90
14682;DHT22;7429;52.498;13.480;2023-05-07T00:49:38;8.80;99.90
14682;DHT22;7429;52.498;13.480;2023-05-07T00:52:43;8.80;99.90
14682;DHT22;7429;52.498;13.480;2023-05-07T00:55:46;8.80;99.90
14682;DHT22;7429;52.498;13.480;2023-05-07T00:58:49;8.80;99.90
14682;DHT22;7429;52.498;13.480;2023-05-07T01:01:54;8.80;99.90
14682;DHT22;7429;52.498;13.480;2023-05-07T01:04:57;8.80;99.90
14682;DHT22;7429;52.498;13.480;2023-05-07T01:08:01;8.80;99.90
14682;DHT22;7429;52.498;13.480;2023-05-07T01:11:05;8.80;99.90
14682;DHT22;7429;52.498;13.480;2023-05-07T01:14:10;8.80;99.90
14682;DHT22;7429;52.498;13.480;2023-05-07T01:17:14;8.90;99.90
14682;DHT22;7429;52.498;13.480;2023-05-07T01:20:19;8.90;99.90
14682;DHT22;7429;52.498;13.480;2023-05-07T01:23:27;8.80;99.90
14682;DHT22;7429;52.498;13.480;2023-05-07T01:26:31;8.90;99.90
14682;DHT22;7429;52.498;13.480;2023-05-07T01:29:34;8.90;99.90
14682;DHT22;7429;52.498;13.480;2023-05-07T01:32:40;8.90;99.90
14682;DHT22;7429;52.498;13.480;2023-05-07T01:35:50;8.90;99.90
14682;DHT22;7429;52.498;13.480;2023-05-07T01:38:56;8.90;99.90
14682;DHT22;7429;52.498;13.480;2023-05-07T01:42:00;8.90;99.90
14682;DHT22;7429;52.498;13.480;2023-05-07T01:45:05;8.90;99.90
14682;DHT22;7429;52.498;13.480;2023-05-07T01:48:10;8.90;99.90
14682;DHT22;7429;52.498;13.480;2023-05-07T01:51:15;8.90;99.90
14682;DHT22;7429;52.498;13.480;2023-05-07T01:54:19;8.90;99.90
14682;DHT22;7429;52.498;13.480;2023-05-07T01:57:30;8.80;99.90
14682;DHT22;7429;52.498;13.480;2023-05-07T02:00:34;8.90;99.90
14682;DHT22;7429;52.498;13.480;2023-05-07T02:03:38;8.90;99.90
14682;DHT22;7429;52.498;13.480;2023-05-07T02:06:48;8.90;99.90
14682;DHT22;7429;52.498;13.480;2023-05-07T02:09:54;8.80;99.90
14682;DHT22;7429;52.498;13.480;2023-05-07T02:12:57;8.90;99.90
14682;DHT22;7429;52.498;13.480;2023-05-07T02:16:01;8.90;99.90
14682;DHT22;7429;52.498;13.480;2023-05-07T02:19:04;8.90;99.90
14682;DHT22;7429;52.498;13.480;2023-05-07T02:22:09;8.90;99.90
14682;DHT22;7429;52.498;13.480;2023-05-07T02:25:14;8.90;99.90
14682;DHT22;7429;52.498;13.480;2023-05-07T02:28:17;8.90;99.90
14682;DHT22;7429;52.498;13.480;2023-05-07T02:31:27;8.90;99.90
14682;DHT22;7429;52.498;13.480;2023-05-07T02:34:31;8.90;99.90
14682;DHT22;7429;52.498;13.480;2023-05-07T02:37:34;8.90;99.90
14682;DHT22;7429;52.498;13.480;2023-05-07T02:40:39;8.90;99.90
14682;DHT22;7429;52.498;13.480;2023-05-07T02:43:42;8.90;99.90
14682;DHT22;7429;52.498;13.480;2023-05-07T02:46:46;8.90;99.90
14682;DHT22;7429;52.498;13.480;2023-05-07T02:49:49;9.00;99.90
14682;DHT22;7429;52.498;13.480;2023-05-07T02:52:52;8.90;99.90
14682;DHT22;7429;52.498;13.480;2023-05-07T02:55:58;8.90;99.90
14682;DHT22;7429;52.498;13.480;2023-05-07T02:59:02;8.90;99.90
14682;DHT22;7429;52.498;13.480;2023-05-07T03:02:08;8.90;99.90
14682;DHT22;7429;52.498;13.480;2023-05-07T03:05:12;8.90;99.90
14682;DHT22;7429;52.498;13.480;2023-05-07T03:08:17;8.90;99.90
14682;DHT22;7429;52.498;13.480;2023-05-07T03:11:21;8.90;99.90
14682;DHT22;7429;52.498;13.480;2023-05-07T03:14:24;8.80;99.90
14682;DHT22;7429;52.498;13.480;2023-05-07T03:17:28;8.80;99.90
14682;DHT22;7429;52.498;13.480;2023-05-07T03:20:31;8.90;99.90
14682;DHT22;7429;52.498;13.480;2023-05-07T03:23:35;8.90;99.90
14682;DHT22;7429;52.498;13.480;2023-05-07T03:26:39;8.90;99.90
14682;DHT22;7429;52.498;13.480;2023-05-07T03:29:42;8.90;99.90
14682;DHT22;7429;52.498;13.480;2023-05-07T03:32:46;8.90;99.90
14682;DHT22;7429;52.498;13.480;2023-05-07T03:35:49;8.80;99.90
14682;DHT22;7429;52.498;13.480;2023-05-07T03:38:57;8.80;99.90
14682;DHT22;7429;52.498;13.480;2023-05-07T03:42:10;8.80;99.90
14682;DHT22;7429;52.498;13.480;2023-05-07T03:45:14;8.80;99.90
14682;DHT22;7429;52.498;13.480;2023-05-07T03:48:21;8.90;99.90
14682;DHT22;7429;52.498;13.480;2023-05-07T03:51:27;8.80;99.90
14682;DHT22;7429;52.498;13.480;2023-05-07T03:54:30;8.80;99.90
14682;DHT22;7429;52.498;13.480;2023-05-07T03:57:34;8.80;99.90
14682;DHT22;7429;52.498;13.480;2023-05-07T04:00:38;8.80;99.90
14682;DHT22;7429;52.498;13.480;2023-05-07T04:03:57;8.80;99.90
14682;DHT22;7429;52.498;13.480;2023-05-07T04:07:01;8.80;99.90
14682;DHT22;7429;52.498;13.480;2023-05-07T04:10:07;8.80;99.90
14682;DHT22;7429;52.498;13.480;2023-05-07T04:13:15;8.80;99.90
14682;DHT22;7429;52.498;13.480;2023-05-07T04:16:18;8.80;99.90
14682;DHT22;7429;52.498;13.480;2023-05-07T04:19:24;8.80;99.90
14682;DHT22;7429;52.498;13.480;2023-05-07T04:22:28;8.80;99.90
14682;DHT22;7429;52.498;13.480;2023-05-07T04:25:31;8.80;99.90
14682;DHT22;7429;52.498;13.480;2023-05-07T04:28:43;8.80;99.90
14682;DHT22;7429;52.498;13.480;2023-05-07T04:31:47;8.80;99.90
14682;DHT22;7429;52.498;13.480;2023-05-07T04:34:50;8.80;99.90
14682;DHT22;7429;52.498;13.480;2023-05-07T04:37:53;8.80;99.90
14682;DHT22;7429;52.498;13.480;2023-05-07T04:40:57;8.80;99.90
14682;DHT22;7429;52.498;13.480;2023-05-07T04:44:03;8.90;99.90
14682;DHT22;7429;52.498;13.480;2023-05-07T04:47:09;8.90;99.90
14682;DHT22;7429;52.498;13.480;2023-05-07T04:50:12;8.90;99.90
14682;DHT22;7429;52.498;13.480;2023-05-07T04:53:17;8.90;99.90
14682;DHT22;7429;52.498;13.480;2023-05-07T04:56:20;8.90;99.90
14682;DHT22;7429;52.498;13.480;2023-05-07T04:59:25;8.90;99.90
14682;DHT22;7429;52.498;13.480;2023-05-07T05:02:28;8.90;99.90
14682;DHT22;7429;52.498;13.480;2023-05-07T05:05:31;8.90;99.90
14682;DHT22;7429;52.498;13.480;2023-05-07T05:08:36;8.90;99.90
14682;DHT22;7429;52.498;13.480;2023-05-07T05:11:40;8.90;99.90
14682;DHT22;7429;52.498;13.480;2023-05-07T05:14:44;9.00;99.90
14682;DHT22;7429;52.498;13.480;2023-05-07T05:17:48;9.10;99.90
14682;DHT22;7429;52.498;13.480;2023-05-07T05:20:52;9.10;99.90
14682;DHT22;7429;52.498;13.480;2023-05-07T05:23:56;9.00;99.90
14682;DHT22;7429;52.498;13.480;2023-05-07T05:27:00;9.00;99.90
14682;DHT22;7429;52.498;13.480;2023-05-07T05:30:08;9.00;99.90
14682;DHT22;7429;52.498;13.480;2023-05-07T05:33:13;9.00;99.90
14682;DHT22;7429;52.498;13.480;2023-05-07T05:36:16;9.00;99.90
14682;DHT22;7429;52.498;13.480;2023-05-07T05:39:21;8.90;99.90
14682;DHT22;7429;52.498;13.480;2023-05-07T05:42:25;8.90;99.90
14682;DHT22;7429;52.498;13.480;2023-05-07T05:45:31;8.90;99.90
14682;DHT22;7429;52.498;13.480;2023-05-07T05:48:34;9.00;99.90
14682;DHT22;7429;52.498;13.480;2023-05-07T05:51:39;9.00;99.90
14682;DHT22;7429;52.498;13.480;2023-05-07T05:54:43;9.10;99.90
14682;DHT22;7429;52.498;13.480;2023-05-07T05:57:46;9.30;99.90
14682;DHT22;7429;52.498;13.480;2023-05-07T06:00:51;9.20;99.90
14682;DHT22;7429;52.498;13.480;2023-05-07T06:03:58;9.20;99.90
14682;DHT22;7429;52.498;13.480;2023-05-07T06:07:01;9.30;99.90
14682;DHT22;7429;52.498;13.480;2023-05-07T06:10:06;9.40;99.90
14682;DHT22;7429;52.498;13.480;2023-05-07T06:13:10;9.50;99.90
14682;DHT22;7429;52.498;13.480;2023-05-07T06:16:16;9.60;99.90
14682;DHT22;7429;52.498;13.480;2023-05-07T06:19:19;9.50;99.90
14682;DHT22;7429;52.498;13.480;2023-05-07T06:22:28;9.50;99.90
14682;DHT22;7429;52.498;13.480;2023-05-07T06:25:31;9.50;99.90
14682;DHT22;7429;52.498;13.480;2023-05-07T06:28:34;9.50;99.90
14682;DHT22;7429;52.498;13.480;2023-05-07T06:31:42;9.50;99.90
14682;DHT22;7429;52.498;13.480;2023-05-07T06:34:46;9.50;99.90
14682;DHT22;7429;52.498;13.480;2023-05-07T06:37:50;9.40;99.90
14682;DHT22;7429;52.498;13.480;2023-05-07T06:40:57;9.50;99.90
14682;DHT22;7429;52.498;13.480;2023-05-07T06:44:00;9.50;99.90
14682;DHT22;7429;52.498;13.480;2023-05-07T06:47:12;9.60;99.90
14682;DHT22;7429;52.498;13.480;2023-05-07T06:50:19;9.70;99.90
14682;DHT22;7429;52.498;13.480;2023-05-07T06:53:23;9.80;99.90
14682;DHT22;7429;52.498;13.480;2023-05-07T06:56:29;9.90;99.90
14682;DHT22;7429;52.498;13.480;2023-05-07T06:59:33;10.00;99.90
14682;DHT22;7429;52.498;13.480;2023-05-07T07:02:38;10.10;99.90
14682;DHT22;7429;52.498;13.480;2023-05-07T07:05:42;10.20;99.90
14682;DHT22;7429;52.498;13.480;2023-05-07T07:08:45;10.40;99.90
14682;DHT22;7429;52.498;13.480;2023-05-07T07:11:51;10.40;99.90
14682;DHT22;7429;52.498;13.480;2023-05-07T07:14:54;10.50;99.90
14682;DHT22;7429;52.498;13.480;2023-05-07T07:17:59;10.60;99.90
14682;DHT22;7429;52.498;13.480;2023-05-07T07:21:03;11.00;99.90
14682;DHT22;7429;52.498;13.480;2023-05-07T07:24:06;11.20;99.90
14682;DHT22;7429;52.498;13.480;2023-05-07T07:27:09;11.10;99.90
14682;DHT22;7429;52.498;13.480;2023-05-07T07:30:13;11.00;99.90
14682;DHT22;7429;52.498;13.480;2023-05-07T07:33:22;11.00;99.90
14682;DHT22;7429;52.498;13.480;2023-05-07T07:36:25;11.20;99.90
14682;DHT22;7429;52.498;13.480;2023-05-07T07:39:48;11.50;99.90
14682;DHT22;7429;52.498;13.480;2023-05-07T07:42:51;11.60;99.90
14682;DHT22;7429;52.498;13.480;2023-05-07T07:45:54;11.80;99.90
14682;DHT22;7429;52.498;13.480;2023-05-07T07:48:59;12.10;99.90
14682;DHT22;7429;52.498;13.480;2023-05-07T07:52:03;12.20;99.90
14682;DHT22;7429;52.498;13.480;2023-05-07T07:55:09;12.10;99.90
14682;DHT22;7429;52.498;13.480;2023-05-07T07:58:14;12.30;99.90
14682;DHT22;7429;52.498;13.480;2023-05-07T08:01:18;12.30;99.90
14682;DHT22;7429;52.498;13.480;2023-05-07T08:04:23;12.40;99.90
14682;DHT22;7429;52.498;13.480;2023-05-07T08:07:29;12.60;99.90
14682;DHT22;7429;52.498;13.480;2023-05-07T08:10:32;12.70;99.90
14682;DHT22;7429;52.498;13.480;2023-05-07T08:13:45;12.70;99.90
14682;DHT22;7429;52.498;13.480;2023-05-07T08:16:49;12.90;99.90
14682;DHT22;7429;52.498;13.480;2023-05-07T08:19:54;12.70;99.90
14682;DHT22;7429;52.498;13.480;2023-05-07T08:22:58;12.70;99.90
14682;DHT22;7429;52.498;13.480;2023-05-07T08:26:02;12.90;99.90
14682;DHT22;7429;52.498;13.480;2023-05-07T08:29:05;13.00;99.90
14682;DHT22;7429;52.498;13.480;2023-05-07T08:32:08;13.20;99.90
14682;DHT22;7429;52.498;13.480;2023-05-07T08:35:13;13.20;99.90
14682;DHT22;7429;52.498;13.480;2023-05-07T08:38:16;13.30;99.90
14682;DHT22;7429;52.498;13.480;2023-05-07T08:41:22;13.30;99.90
14682;DHT22;7429;52.498;13.480;2023-05-07T08:44:26;13.20;99.90
14682;DHT22;7429;52.498;13.480;2023-05-07T08:47:38;13.40;99.90
14682;DHT22;7429;52.498;13.480;2023-05-07T08:50:44;13.70;99.90
14682;DHT22;7429;52.498;13.480;2023-05-07T08:53:49;13.90;99.90
14682;DHT22;7429;52.498;13.480;2023-05-07T08:56:59;14.10;99.90
14682;DHT22;7429;52.498;13.480;2023-05-07T09:00:03;14.40;99.90
14682;DHT22;7429;52.498;13.480;2023-05-07T09:03:10;14.70;99.90
14682;DHT22;7429;52.498;13.480;2023-05-07T09:06:18;14.90;99.90
14682;DHT22;7429;52.498;13.480;2023-05-07T09:09:22;14.80;99.90
14682;DHT22;7429;52.498;13.480;2023-05-07T09:12:28;14.70;99.90
14682;DHT22;7429;52.498;13.480;2023-05-07T09:15:32;14.60;99.90
14682;DHT22;7429;52.498;13.480;2023-05-07T09:18:40;14.80;99.90
14682;DHT22;7429;52.498;13.480;2023-05-07T09:21:47;15.00;99.90
14682;DHT22;7429;52.498;13.480;2023-05-07T09:24:52;15.00;99.90
14682;DHT22;7429;52.498;13.480;2023-05-07T09:27:59;14.90;99.90
14682;DHT22;7429;52.498;13.480;2023-05-07T09:31:03;15.10;99.90
14682;DHT22;7429;52.498;13.480;2023-05-07T09:34:07;15.10;99.90
14682;DHT22;7429;52.498;13.480;2023-05-07T09:37:15;14.90;99.90
14682;DHT22;7429;52.498;13.480;2023-05-07T09:40:21;14.90;99.90
14682;DHT22;7429;52.498;13.480;2023-05-07T09:43:25;14.90;99.90
14682;DHT22;7429;52.498;13.480;2023-05-07T09:46:33;15.00;99.90
14682;DHT22;7429;52.498;13.480;2023-05-07T09:49:47;14.90;99.90
14682;DHT22;7429;52.498;13.480;2023-05-07T09:52:56;14.60;99.90
14682;DHT22;7429;52.498;13.480;2023-05-07T09:56:01;14.50;99.90
14682;DHT22;7429;52.498;13.480;2023-05-07T09:59:07;14.80;99.90
14682;DHT22;7429;52.498;13.480;2023-05-07T10:02:11;15.10;99.90
14682;DHT22;7429;52.498;13.480;2023-05-07T10:05:21;15.00;99.90
14682;DHT22;7429;52.498;13.480;2023-05-07T10:08:30;14.90;99.90
14682;DHT22;7429;52.498;13.480;2023-05-07T10:11:37;15.10;99.90
14682;DHT22;7429;52.498;13.480;2023-05-07T10:14:41;15.40;99.90
14682;DHT22;7429;52.498;13.480;2023-05-07T10:17:45;15.80;99.90
14682;DHT22;7429;52.498;13.480;2023-05-07T10:20:51;15.80;99.90
14682;DHT22;7429;52.498;13.480;2023-05-07T10:23:59;15.50;99.90
14682;DHT22;7429;52.498;13.480;2023-05-07T10:27:11;15.60;99.90
14682;DHT22;7429;52.498;13.480;2023-05-07T10:30:29;15.70;99.90
14682;DHT22;7429;52.498;13.480;2023-05-07T10:33:40;15.90;99.90
14682;DHT22;7429;52.498;13.480;2023-05-07T10:36:45;15.80;99.90
14682;DHT22;7429;52.498;13.480;2023-05-07T10:39:50;15.80;99.90
14682;DHT22;7429;52.498;13.480;2023-05-07T10:42:56;15.90;99.90
14682;DHT22;7429;52.498;13.480;2023-05-07T10:46:11;16.20;99.90
14682;DHT22;7429;52.498;13.480;2023-05-07T10:49:21;16.40;99.90
14682;DHT22;7429;52.498;13.480;2023-05-07T10:52:32;16.30;99.90
14682;DHT22;7429;52.498;13.480;2023-05-07T10:55:49;16.00;99.90
14682;DHT22;7429;52.498;13.480;2023-05-07T10:59:33;16.20;99.90
14682;DHT22;7429;52.498;13.480;2023-05-07T11:06:41;16.30;99.90
14682;DHT22;7429;52.498;13.480;2023-05-07T11:09:58;16.40;99.90
14682;DHT22;7429;52.498;13.480;2023-05-07T11:13:43;16.10;99.90
14682;DHT22;7429;52.498;13.480;2023-05-07T11:17:11;15.70;99.90
14682;DHT22;7429;52.498;13.480;2023-05-07T11:20:47;15.60;99.90
14682;DHT22;7429;52.498;13.480;2023-05-07T11:24:20;15.40;99.90
14682;DHT22;7429;52.498;13.480;2023-05-07T11:27:29;16.00;99.90
14682;DHT22;7429;52.498;13.480;2023-05-07T11:30:32;16.40;99.90
14682;DHT22;7429;52.498;13.480;2023-05-07T11:33:37;16.60;99.90
14682;DHT22;7429;52.498;13.480;2023-05-07T11:36:47;16.90;99.90
14682;DHT22;7429;52.498;13.480;2023-05-07T11:40:03;16.90;99.90
14682;DHT22;7429;52.498;13.480;2023-05-07T11:43:10;16.60;99.90
14682;DHT22;7429;52.498;13.480;2023-05-07T11:46:13;16.80;99.90
14682;DHT22;7429;52.498;13.480;2023-05-07T11:49:17;16.80;99.90
14682;DHT22;7429;52.498;13.480;2023-05-07T11:52:23;16.70;99.90
14682;DHT22;7429;52.498;13.480;2023-05-07T11:55:27;16.70;99.90
14682;DHT22;7429;52.498;13.480;2023-05-07T11:58:30;16.70;99.90
14682;DHT22;7429;52.498;13.480;2023-05-07T12:01:35;16.80;99.90
14682;DHT22;7429;52.498;13.480;2023-05-07T12:04:38;16.70;99.90
14682;DHT22;7429;52.498;13.480;2023-05-07T12:07:43;16.50;99.90
14682;DHT22;7429;52.498;13.480;2023-05-07T12:10:50;16.80;99.90
14682;DHT22;7429;52.498;13.480;2023-05-07T12:13:54;17.20;99.90
14682;DHT22;7429;52.498;13.480;2023-05-07T12:17:01;17.50;99.90
14682;DHT22;7429;52.498;13.480;2023-05-07T12:20:06;17.90;99.90
14682;DHT22;7429;52.498;13.480;2023-05-07T12:23:12;17.70;99.90
14682;DHT22;7429;52.498;13.480;2023-05-07T12:26:15;17.20;99.90
14682;DHT22;7429;52.498;13.480;2023-05-07T12:29:21;16.80;99.90
14682;DHT22;7429;52.498;13.480;2023-05-07T12:32:24;16.60;99.90
14682;DHT22;7429;52.498;13.480;2023-05-07T12:35:28;16.80;99.90
14682;DHT22;7429;52.498;13.480;2023-05-07T12:38:37;17.40;99.90
14682;DHT22;7429;52.498;13.480;2023-05-07T12:41:54;17.50;99.90
14682;DHT22;7429;52.498;13.480;2023-05-07T12:44:58;17.40;99.90
14682;DHT22;7429;52.498;13.480;2023-05-07T12:48:01;17.60;99.90
14682;DHT22;7429;52.498;13.480;2023-05-07T12:51:05;17.70;99.90
14682;DHT22;7429;52.498;13.480;2023-05-07T12:54:11;17.80;99.90
14682;DHT22;7429;52.498;13.480;2023-05-07T12:57:14;17.60;99.90
14682;DHT22;7429;52.498;13.480;2023-05-07T13:00:17;17.20;99.90
14682;DHT22;7429;52.498;13.480;2023-05-07T13:03:22;17.00;99.90
14682;DHT22;7429;52.498;13.480;2023-05-07T13:06:26;16.70;99.90
14682;DHT22;7429;52.498;13.480;2023-05-07T13:09:32;17.20;99.90
14682;DHT22;7429;52.498;13.480;2023-05-07T13:12:35;17.40;99.90
14682;DHT22;7429;52.498;13.480;2023-05-07T13:15:39;17.60;99.90
14682;DHT22;7429;52.498;13.480;2023-05-07T13:18:42;17.60;99.90
14682;DHT22;7429;52.498;13.480;2023-05-07T13:21:47;17.50;99.90
14682;DHT22;7429;52.498;13.480;2023-05-07T13:24:52;17.60;99.90
14682;DHT22;7429;52.498;13.480;2023-05-07T13:27:57;18.10;99.90
14682;DHT22;7429;52.498;13.480;2023-05-07T13:31:11;18.40;99.90
14682;DHT22;7429;52.498;13.480;2023-05-07T13:34:14;18.20;99.90
14682;DHT22;7429;52.498;13.480;2023-05-07T13:37:17;17.60;99.90
14682;DHT22;7429;52.498;13.480;2023-05-07T13:40:22;17.40;99.90
14682;DHT22;7429;52.498;13.480;2023-05-07T13:43:25;17.30;99.90
14682;DHT22;7429;52.498;13.480;2023-05-07T13:46:28;17.70;99.90
14682;DHT22;7429;52.498;13.480;2023-05-07T13:49:32;17.80;99.90
14682;DHT22;7429;52.498;13.480;2023-05-07T13:52:35;18.00;99.90
14682;DHT22;7429;52.498;13.480;2023-05-07T13:55:39;18.60;99.90
14682;DHT22;7429;52.498;13.480;2023-05-07T13:58:45;18.30;99.90
14682;DHT22;7429;52.498;13.480;2023-05-07T14:02:00;17.80;99.90
14682;DHT22;7429;52.498;13.480;2023-05-07T14:05:04;17.20;99.90
14682;DHT22;7429;52.498;13.480;2023-05-07T14:08:07;17.10;99.90
14682;DHT22;7429;52.498;13.480;2023-05-07T14:11:12;17.20;99.90
14682;DHT22;7429;52.498;13.480;2023-05-07T14:14:15;17.40;99.90
14682;DHT22;7429;52.498;13.480;2023-05-07T14:17:19;17.40;99.90
14682;DHT22;7429;52.498;13.480;2023-05-07T14:20:25;17.20;99.90
14682;DHT22;7429;52.498;13.480;2023-05-07T14:23:28;17.10;99.90
14682;DHT22;7429;52.498;13.480;2023-05-07T14:26:33;16.70;99.90
14682;DHT22;7429;52.498;13.480;2023-05-07T14:29:36;16.70;99.90
14682;DHT22;7429;52.498;13.480;2023-05-07T14:32:39;16.60;99.90
14682;DHT22;7429;52.498;13.480;2023-05-07T14:35:42;16.60;99.90
14682;DHT22;7429;52.498;13.480;2023-05-07T14:38:51;16.60;99.90
14682;DHT22;7429;52.498;13.480;2023-05-07T14:41:57;16.30;99.90
14682;DHT22;7429;52.498;13.480;2023-05-07T14:45:03;16.30;99.90
14682;DHT22;7429;52.498;13.480;2023-05-07T14:48:07;16.70;99.90
14682;DHT22;7429;52.498;13.480;2023-05-07T14:51:11;17.40;99.90
14682;DHT22;7429;52.498;13.480;2023-05-07T14:54:16;17.60;99.90
14682;DHT22;7429;52.498;13.480;2023-05-07T14:57:20;17.40;99.90
14682;DHT22;7429;52.498;13.480;2023-05-07T15:00:23;17.70;99.90
14682;DHT22;7429;52.498;13.480;2023-05-07T15:03:27;17.70;99.90
14682;DHT22;7429;52.498;13.480;2023-05-07T15:06:30;17.60;99.90
14682;DHT22;7429;52.498;13.480;2023-05-07T15:09:34;17.60;99.90
14682;DHT22;7429;52.498;13.480;2023-05-07T15:12:38;17.30;99.90
14682;DHT22;7429;52.498;13.480;2023-05-07T15:15:42;16.80;99.90
14682;DHT22;7429;52.498;13.480;2023-05-07T15:18:46;16.60;99.90
14682;DHT22;7429;52.498;13.480;2023-05-07T15:21:52;16.50;99.90
14682;DHT22;7429;52.498;13.480;2023-05-07T15:24:55;16.70;99.90
14682;DHT22;7429;52.498;13.480;2023-05-07T15:28:00;16.90;99.90
14682;DHT22;7429;52.498;13.480;2023-05-07T15:31:03;16.80;99.90
14682;DHT22;7429;52.498;13.480;2023-05-07T15:34:06;16.60;99.90
14682;DHT22;7429;52.498;13.480;2023-05-07T15:37:10;16.50;99.90
14682;DHT22;7429;52.498;13.480;2023-05-07T15:40:13;16.50;99.90
14682;DHT22;7429;52.498;13.480;2023-05-07T15:43:18;16.20;99.90
14682;DHT22;7429;52.498;13.480;2023-05-07T15:46:22;16.20;99.90
14682;DHT22;7429;52.498;13.480;2023-05-07T15:49:26;16.40;99.90
14682;DHT22;7429;52.498;13.480;2023-05-07T15:52:30;16.70;99.90
14682;DHT22;7429;52.498;13.480;2023-05-07T15:55:33;16.80;99.90
14682;DHT22;7429;52.498;13.480;2023-05-07T15:58:37;16.60;99.90
14682;DHT22;7429;52.498;13.480;2023-05-07T16:01:40;16.70;99.90
14682;DHT22;7429;52.498;13.480;2023-05-07T16:04:44;16.80;99.90
14682;DHT22;7429;52.498;13.480;2023-05-07T16:07:48;16.80;99.90
14682;DHT22;7429;52.498;13.480;2023-05-07T16:10:52;16.80;99.90
14682;DHT22;7429;52.498;13.480;2023-05-07T16:13:56;16.70;99.90
14682;DHT22;7429;52.498;13.480;2023-05-07T16:17:01;16.50;99.90
14682;DHT22;7429;52.498;13.480;2023-05-07T16:20:05;16.60;99.90
14682;DHT22;7429;52.498;13.480;2023-05-07T16:23:13;16.50;99.90
14682;DHT22;7429;52.498;13.480;2023-05-07T16:26:28;16.30;99.90
14682;DHT22;7429;52.498;13.480;2023-05-07T16:29:32;16.10;99.90
14682;DHT22;7429;52.498;13.480;2023-05-07T16:32:36;15.90;99.90
14682;DHT22;7429;52.498;13.480;2023-05-07T16:35:39;15.80;99.90
14682;DHT22;7429;52.498;13.480;2023-05-07T16:38:42;15.70;99.90
14682;DHT22;7429;52.498;13.480;2023-05-07T16:41:45;15.40;99.90
14682;DHT22;7429;52.498;13.480;2023-05-07T16:44:52;15.30;99.90
14682;DHT22;7429;52.498;13.480;2023-05-07T16:47:55;15.10;99.90
14682;DHT22;7429;52.498;13.480;2023-05-07T16:50:59;15.10;99.90
14682;DHT22;7429;52.498;13.480;2023-05-07T16:54:03;14.90;99.90
14682;DHT22;7429;52.498;13.480;2023-05-07T16:57:06;14.90;99.90
14682;DHT22;7429;52.498;13.480;2023-05-07T17:00:16;15.00;99.90
14682;DHT22;7429;52.498;13.480;2023-05-07T17:03:21;15.00;99.90
14682;DHT22;7429;52.498;13.480;2023-05-07T17:06:25;15.10;99.90
14682;DHT22;7429;52.498;13.480;2023-05-07T17:09:28;15.00;99.90
14682;DHT22;7429;52.498;13.480;2023-05-07T17:12:31;15.10;99.90
14682;DHT22;7429;52.498;13.480;2023-05-07T17:15:37;15.10;99.90
14682;DHT22;7429;52.498;13.480;2023-05-07T17:18:51;15.00;99.90
14682;DHT22;7429;52.498;13.480;2023-05-07T17:21:55;14.80;99.90
14682;DHT22;7429;52.498;13.480;2023-05-07T17:24:58;14.70;99.90
14682;DHT22;7429;52.498;13.480;2023-05-07T17:28:05;14.40;99.90
14682;DHT22;7429;52.498;13.480;2023-05-07T17:31:09;14.30;99.90
14682;DHT22;7429;52.498;13.480;2023-05-07T17:34:13;14.40;99.90
14682;DHT22;7429;52.498;13.480;2023-05-07T17:37:16;14.30;99.90
14682;DHT22;7429;52.498;13.480;2023-05-07T17:40:22;14.30;99.90
14682;DHT22;7429;52.498;13.480;2023-05-07T17:43:25;14.40;99.90
14682;DHT22;7429;52.498;13.480;2023-05-07T17:46:30;14.20;99.90
14682;DHT22;7429;52.498;13.480;2023-05-07T17:49:39;14.10;99.90
14682;DHT22;7429;52.498;13.480;2023-05-07T17:52:58;14.00;99.90
14682;DHT22;7429;52.498;13.480;2023-05-07T17:56:01;14.00;99.90
14682;DHT22;7429;52.498;13.480;2023-05-07T17:59:04;14.00;99.90
14682;DHT22;7429;52.498;13.480;2023-05-07T18:02:20;14.00;99.90
14682;DHT22;7429;52.498;13.480;2023-05-07T18:05:42;13.90;99.90
14682;DHT22;7429;52.498;13.480;2023-05-07T18:08:46;13.90;99.90
14682;DHT22;7429;52.498;13.480;2023-05-07T18:11:52;13.80;99.90
14682;DHT22;7429;52.498;13.480;2023-05-07T18:14:58;13.70;99.90
14682;DHT22;7429;52.498;13.480;2023-05-07T18:18:04;13.70;99.90
14682;DHT22;7429;52.498;13.480;2023-05-07T18:21:09;13.70;99.90
14682;DHT22;7429;52.498;13.480;2023-05-07T18:24:22;13.70;99.90
14682;DHT22;7429;52.498;13.480;2023-05-07T18:27:26;13.60;99.90
14682;DHT22;7429;52.498;13.480;2023-05-07T18:30:32;13.60;99.90
14682;DHT22;7429;52.498;13.480;2023-05-07T18:33:46;13.60;99.90
14682;DHT22;7429;52.498;13.480;2023-05-07T18:37:05;13.60;99.90
14682;DHT22;7429;52.498;13.480;2023-05-07T18:40:13;13.60;99.90
14682;DHT22;7429;52.498;13.480;2023-05-07T18:43:26;13.60;99.90
14682;DHT22;7429;52.498;13.480;2023-05-07T18:46:43;13.50;99.90
14682;DHT22;7429;52.498;13.480;2023-05-07T18:49:56;13.40;99.90
14682;DHT22;7429;52.498;13.480;2023-05-07T18:53:00;13.30;99.90
14682;DHT22;7429;52.498;13.480;2023-05-07T18:56:04;13.30;99.90
14682;DHT22;7429;52.498;13.480;2023-05-07T18:59:11;13.20;99.90
14682;DHT22;7429;52.498;13.480;2023-05-07T19:02:14;13.10;99.90
14682;DHT22;7429;52.498;13.480;2023-05-07T19:05:26;13.00;99.90
14682;DHT22;7429;52.498;13.480;2023-05-07T19:08:30;12.90;99.90
14682;DHT22;7429;52.498;13.480;2023-05-07T19:11:33;12.90;99.90
14682;DHT22;7429;52.498;13.480;2023-05-07T19:14:36;12.80;99.90
14682;DHT22;7429;52.498;13.480;2023-05-07T19:17:41;12.80;99.90
14682;DHT22;7429;52.498;13.480;2023-05-07T19:20:47;12.80;99.90
14682;DHT22;7429;52.498;13.480;2023-05-07T19:23:55;12.80;99.90
14682;DHT22;7429;52.498;13.480;2023-05-07T19:26:58;12.80;99.90
14682;DHT22;7429;52.498;13.480;2023-05-07T19:30:03;12.70;99.90
14682;DHT22;7429;52.498;13.480;2023-05-07T19:33:07;12.70;99.90
14682;DHT22;7429;52.498;13.480;2023-05-07T19:36:11;12.60;99.90
14682;DHT22;7429;52.498;13.480;2023-05-07T19:39:17;12.60;99.90
14682;DHT22;7429;52.498;13.480;2023-05-07T19:42:21;12.50;99.90
14682;DHT22;7429;52.498;13.480;2023-05-07T19:45:24;12.40;99.90